createdAt,value
2023-04-18T00:04:33.579Z,17.8
2023-04-18T00:10:38.324Z,17.8
2023-04-18T00:16:44.054Z,17.8
2023-04-18T00:22:50.053Z,17.8
2023-04-18T00:28:55.816Z,17.8
2023-04-18T00:35:01.400Z,17.8
2023-04-18T00:41:07.016Z,17.8
2023-04-18T00:47:12.350Z,17.8
2023-04-18T00:53:17.694Z,17.8
2023-04-18T00:59:23.090Z,17.8
2023-04-18T01:05:28.242Z,17.7
2023-04-18T01:11:33.600Z,17.7
2023-04-18T01:17:39.006Z,17.7
2023-04-18T01:23:44.954Z,17.7
2023-04-18T01:29:50.925Z,17.7
2023-04-18T01:35:56.292Z,17.7
2023-04-18T01:42:01.691Z,17.7
2023-04-18T01:48:07.438Z,17.7
2023-04-18T01:54:13.149Z,17.7
2023-04-18T02:00:19.604Z,17.6
2023-04-18T02:06:25.235Z,17.6
2023-04-18T02:12:30.606Z,17.6
2023-04-18T02:18:35.962Z,17.6
2023-04-18T02:24:41.697Z,17.6
2023-04-18T02:30:47.723Z,17.6
2023-04-18T02:36:52.916Z,17.6
2023-04-18T02:42:57.993Z,17.5
2023-04-18T02:49:03.374Z,17.5
2023-04-18T02:55:08.733Z,17.5
2023-04-18T03:01:14.547Z,17.5
2023-04-18T03:07:20.101Z,17.5
2023-04-18T03:13:25.726Z,17.5
2023-04-18T03:19:31.230Z,17.5
2023-04-18T03:25:36.480Z,17.5
2023-04-18T03:31:41.814Z,17.5
2023-04-18T03:37:47.809Z,17.4
2023-04-18T03:43:52.942Z,17.4
2023-04-18T03:49:58.466Z,17.4
2023-04-18T03:56:03.928Z,17.4
2023-04-18T04:02:09.538Z,17.4
2023-04-18T04:08:15.462Z,17.4
2023-04-18T04:14:21.040Z,17.4
2023-04-18T04:20:26.807Z,17.4
2023-04-18T04:26:32.174Z,17.4
2023-04-18T04:32:37.397Z,17.3
2023-04-18T04:38:43.253Z,17.3
2023-04-18T04:44:48.715Z,17.3
2023-04-18T04:50:54.250Z,17.3
2023-04-18T04:56:59.988Z,17.4
2023-04-18T05:03:05.505Z,17.5
2023-04-18T05:09:11.725Z,17.7
2023-04-18T05:15:16.895Z,17.8
2023-04-18T05:21:22.494Z,17.9
2023-04-18T05:27:28.645Z,18
2023-04-18T05:33:34.291Z,18
2023-04-18T05:39:39.652Z,18
2023-04-18T05:45:45.225Z,18
2023-04-18T05:51:50.392Z,18
2023-04-18T05:57:55.558Z,18
2023-04-18T06:04:00.985Z,18.1
2023-04-18T06:10:06.518Z,18.1
2023-04-18T06:16:12.315Z,18.1
2023-04-18T06:22:17.281Z,18.1
2023-04-18T06:28:22.252Z,18.1
2023-04-18T06:34:27.552Z,18.1
2023-04-18T06:40:33.277Z,18.1
2023-04-18T06:46:38.662Z,18
2023-04-18T06:52:44.354Z,18
2023-04-18T06:58:50.395Z,18
2023-04-18T07:04:56.245Z,18
2023-04-18T07:11:01.637Z,18.1
2023-04-18T07:17:07.178Z,18
2023-04-18T07:23:12.560Z,18
2023-04-18T07:29:17.858Z,18
2023-04-18T07:35:23.654Z,18
2023-04-18T07:41:28.809Z,18
2023-04-18T07:47:34.392Z,18
2023-04-18T07:53:39.731Z,18.1
2023-04-18T07:59:45.331Z,18.1
2023-04-18T08:05:50.488Z,18.2
2023-04-18T08:11:55.851Z,18.2
2023-04-18T08:18:01.722Z,18.1
2023-04-18T08:24:08.016Z,18.1
2023-04-18T08:30:13.380Z,18.2
2023-04-18T08:36:18.984Z,18.2
2023-04-18T08:42:24.395Z,18.2
2023-04-18T08:48:29.146Z,18.1
2023-04-18T08:54:34.661Z,18.1
2023-04-18T09:00:39.827Z,18.1
2023-04-18T09:06:45.811Z,18
2023-04-18T09:12:51.157Z,18.1
2023-04-18T09:18:56.746Z,18.1
2023-04-18T09:25:01.912Z,18.1
2023-04-18T09:31:07.746Z,18.2
2023-04-18T09:37:13.586Z,18.2
2023-04-18T09:43:19.459Z,18.2
2023-04-18T09:49:25.618Z,18.3
2023-04-18T09:55:30.248Z,18.3
2023-04-18T10:01:35.799Z,18.2
2023-04-18T10:07:40.563Z,18.4
2023-04-18T10:13:46.264Z,18.4
2023-04-18T10:19:51.063Z,18.3
2023-04-18T10:25:56.621Z,18.3
2023-04-18T10:32:02.037Z,18.4
2023-04-18T10:38:07.745Z,18.5
2023-04-18T10:44:13.312Z,18.4
2023-04-18T10:50:19.108Z,18.4
2023-04-18T10:56:24.958Z,18.4
2023-04-18T11:02:30.602Z,18.4
2023-04-18T11:08:36.448Z,18.4
2023-04-18T11:14:41.819Z,18.3
2023-04-18T11:20:47.790Z,18.3
2023-04-18T11:26:53.564Z,18.5
2023-04-18T11:32:59.192Z,18.4
2023-04-18T11:39:04.709Z,18.3
2023-04-18T11:45:10.320Z,18.3
2023-04-18T11:51:15.639Z,18.5
2023-04-18T11:57:21.440Z,18.5
2023-04-18T12:03:27.263Z,18.5
2023-04-18T12:09:33.656Z,18.5
2023-04-18T12:15:39.266Z,18.6
2023-04-18T12:21:44.807Z,18.5
2023-04-18T12:27:50.716Z,18.4
2023-04-18T12:33:56.544Z,18.5
2023-04-18T12:40:02.141Z,18.5
2023-04-18T12:46:07.291Z,18.5
2023-04-18T12:52:12.594Z,18.5
2023-04-18T12:58:17.813Z,18.5
2023-04-18T13:04:23.622Z,18.5
2023-04-18T13:10:29.378Z,18.5
2023-04-18T13:16:35.197Z,18.5
2023-04-18T13:22:40.451Z,18.5
2023-04-18T13:28:45.698Z,18.6
2023-04-18T13:34:50.780Z,18.5
2023-04-18T13:41:08.794Z,18.5
2023-04-18T13:47:17.102Z,18.5
2023-04-18T13:53:22.464Z,18.5
2023-04-18T13:59:28.095Z,18.5
2023-04-18T14:05:34.014Z,18.5
2023-04-18T14:11:39.398Z,18.4
2023-04-18T14:17:45.854Z,18.4
2023-04-18T14:23:51.819Z,18.4
2023-04-18T14:29:56.773Z,18.4
2023-04-18T14:36:02.290Z,18.4
2023-04-18T14:42:08.330Z,18.3
2023-04-18T14:48:13.959Z,18.3
2023-04-18T14:54:19.463Z,18.3
2023-04-18T15:00:24.838Z,18.3
2023-04-18T15:06:30.410Z,18.3
2023-04-18T15:12:35.839Z,18.3
2023-04-18T15:18:41.168Z,18.3
2023-04-18T15:24:47.270Z,18.3
2023-04-18T15:30:52.856Z,18.3
2023-04-18T15:36:58.407Z,18.4
2023-04-18T15:43:03.079Z,18.4
2023-04-18T15:49:08.552Z,18.4
2023-04-18T15:55:13.816Z,18.4
2023-04-18T16:01:18.735Z,18.5
2023-04-18T16:07:24.423Z,18.5
2023-04-18T16:13:29.885Z,18.5
2023-04-18T16:19:36.247Z,18.6
2023-04-18T16:25:41.237Z,18.6
2023-04-18T16:31:46.665Z,18.6
2023-04-18T16:37:52.519Z,18.6
2023-04-18T16:43:57.865Z,18.6
2023-04-18T16:50:03.131Z,18.6
2023-04-18T16:56:09.260Z,18.6
2023-04-18T17:02:14.824Z,18.6
2023-04-18T17:08:20.589Z,18.6
2023-04-18T17:14:25.944Z,18.5
2023-04-18T17:20:31.503Z,18.5
2023-04-18T17:26:38.730Z,18.5
2023-04-18T17:32:44.767Z,18.4
2023-04-18T17:38:50.071Z,18.4
2023-04-18T17:44:55.454Z,18.4
2023-04-18T17:51:00.598Z,18.4
2023-04-18T17:57:06.184Z,18.4
2023-04-18T18:03:11.034Z,18.4
2023-04-18T18:09:17.528Z,18.4
2023-04-18T18:15:23.525Z,18.3
2023-04-18T18:21:29.102Z,18.3
2023-04-18T18:27:34.680Z,18.3
2023-04-18T18:33:39.862Z,18.3
2023-04-18T18:39:45.800Z,18.3
2023-04-18T18:45:51.382Z,18.3
2023-04-18T18:51:56.411Z,18.3
2023-04-18T18:58:01.913Z,18.3
2023-04-18T19:04:07.695Z,18.3
2023-04-18T19:10:13.656Z,18.3
2023-04-18T19:16:18.679Z,18.3
2023-04-18T19:22:24.664Z,18.3
2023-04-18T19:28:29.966Z,18.3
2023-04-18T19:34:35.748Z,18.3
2023-04-18T19:40:41.380Z,18.3
2023-04-18T19:46:47.351Z,18.3
2023-04-18T19:52:53.097Z,18.3
2023-04-18T19:58:58.466Z,18.3
2023-04-18T20:05:04.422Z,18.3
2023-04-18T20:11:10.677Z,18.3
2023-04-18T20:17:16.012Z,18.3
2023-04-18T20:23:21.151Z,18.3
2023-04-18T20:29:26.720Z,18.3
2023-04-18T20:35:32.109Z,18.3
2023-04-18T20:41:37.333Z,18.2
2023-04-18T20:47:42.494Z,18.2
2023-04-18T20:53:47.844Z,18.2
2023-04-18T20:59:52.994Z,18.2
2023-04-18T21:05:58.743Z,18.2
2023-04-18T21:12:04.316Z,18.2
2023-04-18T21:18:10.310Z,18.2
2023-04-18T21:24:16.257Z,18.2
2023-04-18T21:30:22.232Z,18.2
2023-04-18T21:36:28.083Z,18.1
2023-04-18T21:42:34.045Z,18.1
2023-04-18T21:48:39.575Z,18.1
2023-04-18T21:54:44.823Z,18.1
2023-04-18T22:00:49.544Z,18.1
2023-04-18T22:06:54.494Z,18.1
2023-04-18T22:12:59.864Z,18.1
2023-04-18T22:19:05.452Z,18.1
2023-04-18T22:25:10.814Z,18.1
2023-04-18T22:31:16.143Z,18.1
2023-04-18T22:37:21.684Z,18.1
2023-04-18T22:43:26.896Z,18.1
2023-04-18T22:49:32.426Z,18.1
2023-04-18T22:55:38.220Z,18.1
2023-04-18T23:01:43.419Z,18.1
2023-04-18T23:07:48.956Z,18
2023-04-18T23:13:54.381Z,18
2023-04-18T23:19:59.949Z,18
2023-04-18T23:26:05.733Z,18
2023-04-18T23:32:11.118Z,18
2023-04-18T23:38:16.612Z,18
2023-04-18T23:44:22.384Z,18
2023-04-18T23:50:28.848Z,18
2023-04-18T23:56:34.288Z,18
